Flight Track Log - Related Links

Times and Time Zones

All times are in EDT time to prevent confusion due to time zone crossing. See the FLG3969 flight status page for this flight to view local times or setup timezone preferences in your user account.


Time Position Orientation Groundspeed Altitude Reporting Facility
EDT Latitude Longitude Course Direction KTS MPH feet Rate Location/Type
Mon 02:50:34 PM 40.6500 -73.7333 209° Southwest 174 200 1,700  Level New York TRACON
Mon 02:52:00 PM 40.4215 -73.9302 209° Southwest  Level FlightAware Approximate
Mon 02:52:34 PM 40.6000 -73.7167 166° South 254 292 5,400  Level New York TRACON
Mon 02:53:00 PM 40.3492 -73.9819 209° Southwest  Level FlightAware Approximate
Mon 02:53:34 PM 40.5667 -73.8000 242° Southwest 281 323 6,000  Level New York TRACON
Mon 02:54:00 PM 40.2769 -74.0334 209° Southwest  Level FlightAware Approximate
Mon 02:54:40 PM 40.5000 -73.8667 217° Southwest 271 312 7,700  Level New York TRACON
Mon 02:55:00 PM 40.2046 -74.0849 209° Southwest  Level FlightAware Approximate
Mon 02:55:34 PM 40.4500 -73.9167 217° Southwest 276 318 8,000  Level New York TRACON
Mon 02:57:00 PM 40.3480 -73.9870 208° Southwest  Level FlightAware Approximate
Mon 03:04:00 PM 39.8717 -74.3668 215° Southwest  Level FlightAware Approximate
Mon 03:05:00 PM 39.8057 -74.4265 214° Southwest  Level FlightAware Approximate
Mon 03:06:00 PM 39.7393 -74.4855 214° Southwest  Level FlightAware Approximate
Mon 03:07:00 PM 39.6730 -74.5444 214° Southwest  Level FlightAware Approximate
Mon 03:08:00 PM 39.6091 -74.6076 218° Southwest  Level FlightAware Approximate
Mon 03:09:00 PM 39.5454 -74.6713 218° Southwest  Level FlightAware Approximate
Mon 03:09:45 PM 39.5556 -74.6575 203° Southwest 264 304 5,900  Level Washington Center
Mon 03:10:00 PM 39.4814 -74.7341 216° Southwest  Level FlightAware Approximate
Mon 03:11:00 PM 39.4162 -74.7951 216° Southwest  Level FlightAware Approximate
Mon 03:11:00 PM 39.4868 -74.7290 216° Southwest  Level FlightAware Approximate
Mon 03:12:00 PM 39.3511 -74.8559 216° Southwest  Level FlightAware Approximate
Mon 03:13:00 PM 39.2859 -74.9166 216° Southwest  Level FlightAware Approximate
Mon 03:14:00 PM 39.2166 -74.9680 203° Southwest  Level FlightAware Approximate
Mon 03:15:00 PM 39.1425 -75.0080 203° Southwest  Level FlightAware Approximate
Mon 03:18:00 PM 39.0032 -75.0906 203° Southwest  Level FlightAware Approximate
Mon 03:19:00 PM 38.9291 -75.1306 203° Southwest  Level FlightAware Approximate
Mon 03:20:00 PM 38.8550 -75.1704 203° Southwest  Level FlightAware Approximate
Mon 03:21:00 PM 38.7986 -75.2265 266° West  Level FlightAware Approximate
Mon 03:22:00 PM 38.7929 -75.3294 266° West  Level FlightAware Approximate
Mon 03:22:34 PM 39.0167 -75.6000 265° West 267 307 6,000  Level Potomac TRACON
Mon 03:23:00 PM 38.7872 -75.4322 266° West  Level FlightAware Approximate
Mon 03:23:28 PM 39.0000 -75.6833 256° West 268 308 6,000  Level Potomac TRACON
Mon 03:24:00 PM 38.7807 -75.5350 264° West  Level FlightAware Approximate
Mon 03:24:28 PM 38.9833 -75.7833 258° West 267 307 6,000  Level Potomac TRACON
Mon 03:25:00 PM 38.7728 -75.6376 264° West  Level FlightAware Approximate
Mon 03:25:28 PM 38.9833 -75.8667 270° West 273 314 6,000  Level Potomac TRACON
Mon 03:26:00 PM 38.7650 -75.7401 265° West  Level FlightAware Approximate
Mon 03:26:28 PM 38.9833 -75.9667 270° West 273 314 6,000  Level Potomac TRACON
Mon 03:27:00 PM 38.7577 -75.8428 265° West  Level FlightAware Approximate
Mon 03:27:23 PM 38.9667 -76.0500 256° West 266 306 6,000  Level Potomac TRACON
Mon 03:28:23 PM 38.9667 -76.1500 270° West 268 308 5,800 -500 Descending Potomac TRACON
Mon 03:29:23 PM 38.9500 -76.2333 256° West 263 303 5,000 -400 Descending Potomac TRACON
Mon 03:30:23 PM 38.9500 -76.3333 270° West 272 313 5,000  Level Potomac TRACON
Mon 03:31:23 PM 38.9667 -76.4333 282° West 270 311 5,000 -476 Level Potomac TRACON
Mon 03:32:29 PM 38.9833 -76.5333 282° West 268 308 4,000 -526 Descending Potomac TRACON
Mon 03:33:17 PM 39.0167 -76.6000 303° West 269 310 4,000 -474 Level Potomac TRACON
Mon 03:34:23 PM 39.0500 -76.7000 293° West 259 298 3,100 -524 Descending Potomac TRACON
Mon 03:35:23 PM 39.0667 -76.7833 284° West 267 307 2,900 -200 Descending Potomac TRACON

Login

Don't have an account? Register now (free) for customized features, flight alerts, and more!